Lenapah, Oklahoma
Current Conditions -  °F | °C
As of 2:52 PM on Friday 31 Oct 2014 (Local Time) from KCFV Reporting Station
Clear Clear  
Wind Chill: 50°   Ceiling: Unl
Heat Index: 50°   Visibility: 10mi
Dew Point: 23°   Wind: 16mph
Humidity: 35%   Direction: 360°N
Pressure: 30.42"   Gusts: 23mph
Location:  36.85°N, 95.64°W
Report Text: KCFV 311952Z AUTO 36014G20KT 10SM CLR 10/M05 A3042 RMK AO2 SLP303 T01001050
Loading
Personal Weather Stations






























Interactive Weather Map
Tropical Storm Tracking
New forecast layout! Learn more

10-Day Weather Forecast

Advertisements
Track Severe Weather on mobile